»·PEaware :: WAT295 KSAN-KLAS

WAT295 :: KSAN-KLAS

FLIGHT INFORMATION

Flight Status: Arrived
Operator:
Walker Air Transport
More flights by this operator :: More flights under this callsign
Pilot: Corentin D. (28157)
Aircraft: AIRBUS A321
(A321)
More flights by this aircraft type
Origin: KSAN San Diego Intl-Lindbergh
United States
Destination: KLAS McCarran Intl
United States
More flights between these airports :: More routes between these airports
Route: +PADRZ2 CHKNN SEBBY YELAH MISEN KEPEC6
File this flight plan on PilotEdge
Remarks: RMK / SIMBRIEF
Altitude:
(Current/Filed)
33,000ft
Speed:
(Current/Filed)
461kts
Departed: 19-Aug-20 12:13 PM
Arrived: 19-Aug-20 01:08 PM
Distance/Time
Traveled:
225nm/0:55
Distance/Time
To Go:
Arrived

Flight Plot

Page will automatically refresh every two minutes.

Flight plan parsing failed; only flown route is shown


Map Options




Map Legend


Flown Route
Filed Route
Departure Airport
Arrival Airport
Navaid (VOR, NDB)
Fix

Horizontal Profiles

Position Reports

Time Latitude Longitude Heading Altitude Ground
Speed
19-Aug-20 11:26 32.732877 -117.195436 275 25ft 0kts
19-Aug-20 11:27 32.732877 -117.195436 275 25ft 0kts
19-Aug-20 11:28 32.732877 -117.195436 275 25ft 0kts
19-Aug-20 11:29 32.732877 -117.195436 275 25ft 0kts
19-Aug-20 11:30 32.732877 -117.195436 275 25ft 0kts
19-Aug-20 11:31 32.732877 -117.195436 275 25ft 0kts
19-Aug-20 11:32 32.732877 -117.195436 275 25ft 0kts
19-Aug-20 11:33 32.732877 -117.195436 275 25ft 0kts
19-Aug-20 11:34 32.732877 -117.195436 275 25ft 0kts
19-Aug-20 11:35 32.732877 -117.195436 275 25ft 0kts
19-Aug-20 11:36 32.732877 -117.195436 275 25ft 0kts
19-Aug-20 11:37 32.732877 -117.195436 275 25ft 0kts
19-Aug-20 11:38 32.732877 -117.195436 275 25ft 0kts
19-Aug-20 11:39 32.732877 -117.195436 275 25ft 0kts
19-Aug-20 11:40 32.732877 -117.195436 275 25ft 0kts
19-Aug-20 11:41 32.732877 -117.195436 275 25ft 0kts
19-Aug-20 11:42 32.732877 -117.195436 275 25ft 0kts
19-Aug-20 11:43 32.732877 -117.195436 275 25ft 0kts
19-Aug-20 11:44 32.732877 -117.195436 275 25ft 0kts
19-Aug-20 11:45 32.732877 -117.195436 275 25ft 0kts
19-Aug-20 11:46 32.732877 -117.195436 275 25ft 0kts
19-Aug-20 11:47 32.732877 -117.195436 275 25ft 0kts
19-Aug-20 11:48 32.732877 -117.195436 275 25ft 0kts
19-Aug-20 11:49 32.732877 -117.195436 275 25ft 0kts
19-Aug-20 11:50 32.732877 -117.195436 275 25ft 0kts
19-Aug-20 11:51 32.732877 -117.195436 275 25ft 0kts
19-Aug-20 11:52 32.732877 -117.195436 275 25ft 0kts
19-Aug-20 11:53 32.732877 -117.195436 275 25ft 0kts
19-Aug-20 11:54 32.732877 -117.195436 275 25ft 0kts
19-Aug-20 11:55 32.732877 -117.195436 275 25ft 0kts
19-Aug-20 11:56 32.732877 -117.195436 275 25ft 0kts
19-Aug-20 11:57 32.732877 -117.195436 275 25ft 0kts
19-Aug-20 11:58 32.732876 -117.195436 268 25ft 0kts
19-Aug-20 11:59 32.732823 -117.194791 295 25ft 2kts
19-Aug-20 12:00 32.732491 -117.194722 31 25ft 0kts
19-Aug-20 12:01 32.732491 -117.194722 31 25ft 0kts
19-Aug-20 12:02 32.732491 -117.194722 31 25ft 0kts
19-Aug-20 12:03 32.732491 -117.194722 31 25ft 0kts
19-Aug-20 12:04 32.732842 -117.194483 29 25ft 5kts
19-Aug-20 12:05 32.732975 -117.191467 106 25ft 13kts
19-Aug-20 12:06 32.731714 -117.186335 106 25ft 17kts
19-Aug-20 12:07 32.730320 -117.180557 106 25ft 18kts
19-Aug-20 12:08 32.729623 -117.177293 87 25ft 2kts
19-Aug-20 12:09 32.729604 -117.176953 76 25ft 7kts
19-Aug-20 12:10 32.729634 -117.176816 75 25ft 0kts
19-Aug-20 12:11 32.730067 -117.176281 346 25ft 9kts
19-Aug-20 12:12 32.734556 -117.193701 285 161ft 170kts
19-Aug-20 12:13 32.760364 -117.242300 276 2303ft 197kts
19-Aug-20 12:14 32.791708 -117.305942 304 4131ft 260kts
19-Aug-20 12:15 32.838847 -117.378648 306 6817ft 288kts
19-Aug-20 12:16 32.889208 -117.456673 307 9631ft 304kts
19-Aug-20 12:17 32.943924 -117.541735 308 11341ft 353kts
19-Aug-20 12:18 33.008505 -117.642272 306 12999ft 399kts
19-Aug-20 12:20 33.080031 -117.745072 315 15626ft 410kts
19-Aug-20 12:21 33.169616 -117.836486 318 17900ft 423kts
19-Aug-20 12:22 33.262633 -117.928267 320 19852ft 438kts
19-Aug-20 12:23 33.358591 -118.021837 320 21698ft 450kts
19-Aug-20 12:24 33.456582 -118.117975 320 23376ft 460kts
19-Aug-20 12:25 33.557557 -118.215846 324 24860ft 470kts
19-Aug-20 12:26 33.672074 -118.288846 336 26236ft 478kts
19-Aug-20 12:27 33.795773 -118.268936 41 27874ft 471kts
19-Aug-20 12:28 33.873280 -118.143976 55 29400ft 466kts
19-Aug-20 12:29 33.947875 -118.016954 55 30821ft 462kts
19-Aug-20 12:30 34.022018 -117.891451 55 32097ft 458kts
19-Aug-20 12:31 34.096148 -117.767181 52 32920ft 455kts
19-Aug-20 12:32 34.176318 -117.650126 50 32937ft 455kts
19-Aug-20 12:32 34.243819 -117.551501 50 32940ft 455kts
19-Aug-20 12:34 34.337647 -117.413637 50 32243ft 455kts
19-Aug-20 12:35 34.418319 -117.294390 51 31274ft 456kts
19-Aug-20 12:36 34.499070 -117.174596 51 30296ft 450kts
19-Aug-20 12:36 34.564548 -117.077347 51 29480ft 444kts
19-Aug-20 12:37 34.642880 -116.960779 50 28502ft 446kts
19-Aug-20 12:39 34.733774 -116.825032 50 26693ft 443kts
19-Aug-20 12:39 34.799896 -116.725978 50 25876ft 455kts
19-Aug-20 12:40 34.886803 -116.613387 40 24894ft 457kts
19-Aug-20 12:41 34.987083 -116.515381 37 23999ft 463kts
19-Aug-20 12:42 35.087747 -116.417229 39 23997ft 464kts
19-Aug-20 12:43 35.177802 -116.309609 45 23416ft 465kts
19-Aug-20 12:44 35.266224 -116.198133 45 21176ft 443kts
19-Aug-20 12:45 35.349356 -116.093453 45 19092ft 426kts
19-Aug-20 12:46 35.430505 -115.991022 45 17011ft 411kts
19-Aug-20 12:47 35.508975 -115.891665 45 14965ft 397kts
19-Aug-20 12:48 35.580963 -115.800268 45 13913ft 345kts
19-Aug-20 12:49 35.643414 -115.720811 45 13303ft 309kts
19-Aug-20 12:50 35.703264 -115.644423 45 13044ft 309kts
19-Aug-20 12:51 35.767673 -115.575893 14 13038ft 309kts
19-Aug-20 12:52 35.853850 -115.569749 2 13042ft 310kts
19-Aug-20 12:53 35.937747 -115.565206 3 13033ft 298kts
19-Aug-20 12:54 35.992504 -115.498984 68 12323ft 298kts
19-Aug-20 12:55 36.021184 -115.406420 67 11137ft 279kts
19-Aug-20 12:56 36.026889 -115.313467 95 10525ft 277kts
19-Aug-20 12:57 36.019854 -115.219976 94 9249ft 270kts
19-Aug-20 12:58 36.013625 -115.129710 94 8435ft 258kts
19-Aug-20 12:59 36.026740 -115.047823 31 7428ft 254kts
19-Aug-20 13:00 36.095240 -115.025851 12 5746ft 262kts
19-Aug-20 13:01 36.162620 -115.008376 12 4805ft 226kts
19-Aug-20 13:02 36.201967 -115.040130 282 4335ft 181kts
19-Aug-20 13:03 36.200920 -115.096729 210 3694ft 169kts
19-Aug-20 13:04 36.158667 -115.119087 203 3304ft 160kts
19-Aug-20 13:05 36.118345 -115.142257 204 2563ft 159kts
19-Aug-20 13:06 36.084658 -115.161519 206 2139ft 43kts
19-Aug-20 13:07 36.081644 -115.161864 99 2146ft 0kts
19-Aug-20 13:08 36.081633 -115.161804 102 2145ft 3kts
19-Aug-20 13:09 36.081572 -115.160932 92 2144ft 9kts
19-Aug-20 13:10 36.081606 -115.155410 104 2124ft 19kts
19-Aug-20 13:11 36.079746 -115.152012 1 2117ft 15kts
19-Aug-20 13:12 36.082256 -115.152469 334 2113ft 0kts
19-Aug-20 13:13 36.082373 -115.152535 335 2113ft 0kts
19-Aug-20 13:14 36.082373 -115.152535 335 2113ft 0kts
19-Aug-20 13:15 36.082373 -115.152535 335 2113ft 0kts
19-Aug-20 13:16 36.082373 -115.152535 335 2113ft 0kts
19-Aug-20 13:17 36.082373 -115.152535 335 2113ft 0kts

Navigation Log

Ident Type
Flight plan parsing failed, navigation log unavailable